createdAt,value
2018-09-12T00:00:20.055Z,21.74
2018-09-12T00:01:20.053Z,21.68
2018-09-12T00:02:20.051Z,21.66
2018-09-12T00:03:20.051Z,21.67
2018-09-12T00:04:20.046Z,21.67
2018-09-12T00:05:20.044Z,21.53
2018-09-12T00:06:20.052Z,21.53
2018-09-12T00:07:20.047Z,21.63
2018-09-12T00:08:20.042Z,21.56
2018-09-12T00:09:20.042Z,21.51
2018-09-12T00:10:20.040Z,21.53
2018-09-12T00:11:20.040Z,21.43
2018-09-12T00:12:20.044Z,21.42
2018-09-12T00:13:20.042Z,21.42
2018-09-12T00:14:20.041Z,21.40
2018-09-12T00:15:20.040Z,21.33
2018-09-12T00:16:20.035Z,21.33
2018-09-12T00:17:20.033Z,21.36
2018-09-12T00:18:20.036Z,21.24
2018-09-12T00:19:20.032Z,21.26
2018-09-12T00:20:20.038Z,21.24
2018-09-12T00:21:20.034Z,21.15
2018-09-12T00:22:20.028Z,21.13
2018-09-12T00:23:20.029Z,21.12
2018-09-12T00:24:20.033Z,21.06
2018-09-12T00:25:20.033Z,21.06
2018-09-12T00:26:20.029Z,21.05
2018-09-12T00:27:20.027Z,20.94
2018-09-12T00:28:20.024Z,20.96
2018-09-12T00:29:20.020Z,20.98
2018-09-12T00:30:20.019Z,20.91
2018-09-12T00:31:20.018Z,20.90
2018-09-12T00:32:20.022Z,20.87
2018-09-12T00:33:20.022Z,20.87
2018-09-12T00:34:20.019Z,20.85
2018-09-12T00:35:20.017Z,20.87
2018-09-12T00:36:20.012Z,20.93
2018-09-12T00:37:20.010Z,20.88
2018-09-12T00:38:20.015Z,20.81
2018-09-12T00:39:20.068Z,20.79
2018-09-12T00:40:20.007Z,20.87
2018-09-12T00:41:20.004Z,20.85
2018-09-12T00:42:20.003Z,20.78
2018-09-12T00:43:20.002Z,20.75
2018-09-12T00:44:20.007Z,20.79
2018-09-12T00:45:20.012Z,20.75
2018-09-12T00:46:20.001Z,20.68
2018-09-12T00:47:20.004Z,20.76
2018-09-12T00:48:19.995Z,20.73
2018-09-12T00:49:19.993Z,20.66
2018-09-12T00:50:19.992Z,20.68
2018-09-12T00:51:19.992Z,20.68
2018-09-12T00:52:19.995Z,20.71
2018-09-12T00:53:19.993Z,20.71
2018-09-12T00:54:19.985Z,20.58
2018-09-12T00:55:19.985Z,20.58
2018-09-12T00:56:19.989Z,20.63
2018-09-12T00:57:19.987Z,20.61
2018-09-12T00:58:19.984Z,20.58
2018-09-12T00:59:19.983Z,20.50
2018-09-12T01:00:19.978Z,20.54
2018-09-12T01:01:19.977Z,20.57
2018-09-12T01:02:19.973Z,20.54
2018-09-12T01:03:19.974Z,20.46
2018-09-12T01:04:19.976Z,20.46
2018-09-12T01:05:19.973Z,20.51
2018-09-12T01:06:19.973Z,20.50
2018-09-12T01:07:19.972Z,20.44
2018-09-12T01:08:19.966Z,20.34
2018-09-12T01:09:19.963Z,20.37
2018-09-12T01:10:19.967Z,20.33
2018-09-12T01:11:19.965Z,20.31
2018-09-12T01:12:19.958Z,20.22
2018-09-12T01:13:19.957Z,20.19
2018-09-12T01:14:19.953Z,20.23
2018-09-12T01:15:19.953Z,20.26
2018-09-12T01:16:19.955Z,20.19
2018-09-12T01:17:19.959Z,20.15
2018-09-12T01:18:19.952Z,20.23
2018-09-12T01:19:19.956Z,20.12
2018-09-12T01:20:19.948Z,20.16
2018-09-12T01:21:19.942Z,20.27
2018-09-12T01:22:19.942Z,20.27
2018-09-12T01:23:19.939Z,20.20
2018-09-12T01:24:19.942Z,20.23
2018-09-12T01:25:19.939Z,20.23
2018-09-12T01:26:19.933Z,20.15
2018-09-12T01:27:19.933Z,20.22
2018-09-12T01:28:19.936Z,20.23
2018-09-12T01:29:19.933Z,20.20
2018-09-12T01:30:19.931Z,20.15
2018-09-12T01:31:19.931Z,20.13
2018-09-12T01:32:19.925Z,20.13
2018-09-12T01:33:19.921Z,20.16
2018-09-12T01:34:19.921Z,20.15
2018-09-12T01:35:19.919Z,20.15
2018-09-12T01:36:19.923Z,20.15
2018-09-12T01:37:19.919Z,20.13
2018-09-12T01:38:19.916Z,20.17
2018-09-12T01:39:19.919Z,20.07
2018-09-12T01:40:19.909Z,20.10
2018-09-12T01:41:19.906Z,20.02
2018-09-12T01:42:19.911Z,20.05
2018-09-12T01:43:19.907Z,20.01
2018-09-12T01:44:19.902Z,19.97
2018-09-12T01:45:19.899Z,19.90
2018-09-12T01:46:19.897Z,20.00
2018-09-12T01:47:19.895Z,19.89
2018-09-12T01:48:19.903Z,19.94
2018-09-12T01:49:19.898Z,19.92
2018-09-12T01:50:19.895Z,19.90
2018-09-12T01:51:19.893Z,19.76
2018-09-12T01:52:19.886Z,19.80
2018-09-12T01:53:19.886Z,19.89
2018-09-12T01:54:19.881Z,19.83
2018-09-12T01:55:19.881Z,19.85
2018-09-12T01:56:19.883Z,19.71
2018-09-12T01:57:19.880Z,19.76
2018-09-12T01:58:19.874Z,19.75
2018-09-12T01:59:19.872Z,19.78
2018-09-12T02:00:19.876Z,19.78
2018-09-12T02:01:19.873Z,19.80
2018-09-12T02:02:19.872Z,19.82
2018-09-12T02:03:19.870Z,19.78
2018-09-12T02:04:19.863Z,19.68
2018-09-12T02:05:19.860Z,19.75
2018-09-12T02:06:19.858Z,19.68
2018-09-12T02:07:19.857Z,19.75
2018-09-12T02:08:19.860Z,19.70
2018-09-12T02:09:19.857Z,19.71
2018-09-12T02:10:19.854Z,19.70
2018-09-12T02:11:19.852Z,19.65
2018-09-12T02:12:19.846Z,19.68
2018-09-12T02:13:19.843Z,19.68
2018-09-12T02:14:19.846Z,19.75
2018-09-12T02:15:19.845Z,19.71
2018-09-12T02:16:19.838Z,19.72
2018-09-12T02:17:19.836Z,19.61
2018-09-12T02:18:19.834Z,19.61
2018-09-12T02:19:19.835Z,19.57
2018-09-12T02:20:19.839Z,19.57
2018-09-12T02:21:19.833Z,19.57
2018-09-12T02:22:19.829Z,19.52
2018-09-12T02:23:19.829Z,19.60
2018-09-12T02:24:19.822Z,19.58
2018-09-12T02:25:19.819Z,19.57
2018-09-12T02:26:19.817Z,19.49
2018-09-12T02:27:19.816Z,19.50
2018-09-12T02:28:19.818Z,19.57
2018-09-12T02:29:19.815Z,19.55
2018-09-12T02:30:19.811Z,19.58
2018-09-12T02:31:19.808Z,19.47
2018-09-12T02:32:19.812Z,19.47
2018-09-12T02:33:19.808Z,19.50
2018-09-12T02:34:19.804Z,19.47
2018-09-12T02:35:19.804Z,19.46
2018-09-12T02:36:19.797Z,19.47
2018-09-12T02:37:19.794Z,19.45
2018-09-12T02:38:19.793Z,19.42
2018-09-12T02:39:19.791Z,19.45
2018-09-12T02:40:19.793Z,19.47
2018-09-12T02:41:19.790Z,19.39
2018-09-12T02:42:19.789Z,19.27
2018-09-12T02:43:19.787Z,19.38
2018-09-12T02:44:19.780Z,19.38
2018-09-12T02:45:19.777Z,19.24
2018-09-12T02:46:19.789Z,19.24
2018-09-12T02:47:19.861Z,19.23
2018-09-12T02:48:19.771Z,19.23
2018-09-12T02:49:19.769Z,19.17
2018-09-12T02:50:19.766Z,19.24
2018-09-12T02:51:19.763Z,19.07
2018-09-12T02:52:19.766Z,19.09
2018-09-12T02:53:19.763Z,19.15
2018-09-12T02:54:19.761Z,19.06
2018-09-12T02:55:19.763Z,19.06
2018-09-12T02:56:19.752Z,19.01
2018-09-12T02:57:19.799Z,19.13
2018-09-12T02:58:19.748Z,19.07
2018-09-12T02:59:19.745Z,19.06
2018-09-12T03:00:19.749Z,19.01
2018-09-12T03:01:19.745Z,18.99
2018-09-12T03:02:19.741Z,19.01
2018-09-12T03:03:19.742Z,19.01
2018-09-12T03:04:19.739Z,19.06
2018-09-12T03:05:19.736Z,18.99
2018-09-12T03:06:19.737Z,18.94
2018-09-12T03:07:19.731Z,18.97
2018-09-12T03:08:19.725Z,18.96
2018-09-12T03:09:19.723Z,18.99
2018-09-12T03:10:19.719Z,18.96
2018-09-12T03:11:19.716Z,18.97
2018-09-12T03:12:19.719Z,18.97
2018-09-12T03:13:19.716Z,18.93
2018-09-12T03:14:19.715Z,18.99
2018-09-12T03:15:19.712Z,18.97
2018-09-12T03:16:19.705Z,18.93
2018-09-12T03:17:19.702Z,19.01
2018-09-12T03:18:19.705Z,19.02
2018-09-12T03:19:19.707Z,18.96
2018-09-12T03:20:19.696Z,18.99
2018-09-12T03:21:19.695Z,18.94
2018-09-12T03:22:19.690Z,18.99
2018-09-12T03:23:19.688Z,18.94
2018-09-12T03:24:19.691Z,18.93
2018-09-12T03:25:19.686Z,18.94
2018-09-12T03:26:19.687Z,18.90
2018-09-12T03:27:19.683Z,18.84
2018-09-12T03:28:19.677Z,18.93
2018-09-12T03:29:19.672Z,18.84
2018-09-12T03:30:19.670Z,18.87
2018-09-12T03:31:19.678Z,18.89
2018-09-12T03:32:19.672Z,18.86
2018-09-12T03:33:19.668Z,18.83
2018-09-12T03:34:19.660Z,18.82
2018-09-12T03:35:19.658Z,18.75
2018-09-12T03:36:19.659Z,18.82
2018-09-12T03:37:19.657Z,18.72
2018-09-12T03:38:19.655Z,18.75
2018-09-12T03:39:19.652Z,18.78
2018-09-12T03:40:19.646Z,18.74
2018-09-12T03:41:19.642Z,18.71
2018-09-12T03:42:19.640Z,18.69
2018-09-12T03:43:19.640Z,18.71
2018-09-12T03:44:19.640Z,18.74
2018-09-12T03:45:19.637Z,18.69
2018-09-12T03:46:19.632Z,18.66
2018-09-12T03:47:19.630Z,18.65
2018-09-12T03:48:19.623Z,18.68
2018-09-12T03:49:19.624Z,18.66
2018-09-12T03:50:19.622Z,18.60
2018-09-12T03:51:19.619Z,18.60
2018-09-12T03:52:19.612Z,18.69
2018-09-12T03:53:19.610Z,18.60
2018-09-12T03:54:19.608Z,18.65
2018-09-12T03:55:19.605Z,18.60
2018-09-12T03:56:19.611Z,18.65
2018-09-12T03:57:19.604Z,18.60
2018-09-12T03:58:19.605Z,18.60
2018-09-12T03:59:19.601Z,18.62
2018-09-12T04:00:19.593Z,18.65
2018-09-12T04:01:19.588Z,18.57
2018-09-12T04:02:19.586Z,18.60
2018-09-12T04:03:19.582Z,18.56
2018-09-12T04:04:19.586Z,18.50
2018-09-12T04:05:19.583Z,18.53
2018-09-12T04:06:19.574Z,18.49
2018-09-12T04:07:19.572Z,18.47
2018-09-12T04:08:19.573Z,18.50
2018-09-12T04:09:19.569Z,18.44
2018-09-12T04:10:19.568Z,18.47
2018-09-12T04:11:19.565Z,18.41
2018-09-12T04:12:19.559Z,18.42
2018-09-12T04:13:19.554Z,18.36
2018-09-12T04:14:19.554Z,18.41
2018-09-12T04:15:19.549Z,18.29
2018-09-12T04:16:19.552Z,18.26
2018-09-12T04:17:19.548Z,18.38
2018-09-12T04:18:19.546Z,18.38
2018-09-12T04:19:19.541Z,18.36
2018-09-12T04:20:19.536Z,18.36
2018-09-12T04:21:19.535Z,18.31
2018-09-12T04:22:19.532Z,18.31
2018-09-12T04:23:19.530Z,18.32
2018-09-12T04:24:19.592Z,18.28
2018-09-12T04:25:19.520Z,18.23
2018-09-12T04:26:19.517Z,18.28
2018-09-12T04:27:19.515Z,18.20
2018-09-12T04:28:19.517Z,18.25
2018-09-12T04:29:19.514Z,18.23
2018-09-12T04:30:19.509Z,18.19
2018-09-12T04:31:19.506Z,18.26
2018-09-12T04:32:19.503Z,18.26
2018-09-12T04:33:19.496Z,18.14
2018-09-12T04:34:19.493Z,18.26
2018-09-12T04:35:19.491Z,18.13
2018-09-12T04:36:19.493Z,18.26
2018-09-12T04:37:19.490Z,18.13
2018-09-12T04:38:19.482Z,18.13
2018-09-12T04:39:19.480Z,18.14
2018-09-12T04:40:19.482Z,18.14
2018-09-12T04:41:19.477Z,18.17
2018-09-12T04:42:19.474Z,18.13
2018-09-12T04:43:19.491Z,18.20
2018-09-12T04:44:19.464Z,18.17
2018-09-12T04:45:19.464Z,18.25
2018-09-12T04:46:19.458Z,18.14
2018-09-12T04:47:19.454Z,18.20
2018-09-12T04:48:19.510Z,18.17
2018-09-12T04:49:19.452Z,18.14
2018-09-12T04:50:19.452Z,18.14
2018-09-12T04:51:19.449Z,18.16
2018-09-12T04:52:19.440Z,18.13
2018-09-12T04:53:19.435Z,18.13
2018-09-12T04:54:19.438Z,18.14
2018-09-12T04:55:19.436Z,18.20
2018-09-12T04:56:19.428Z,18.14
2018-09-12T04:57:19.424Z,18.20
2018-09-12T04:58:19.421Z,18.13
2018-09-12T04:59:19.417Z,18.16
2018-09-12T05:00:19.422Z,18.17
2018-09-12T05:01:19.416Z,18.11
2018-09-12T05:02:19.413Z,18.13
2018-09-12T05:03:19.409Z,18.11
2018-09-12T05:04:19.402Z,18.16
2018-09-12T05:05:19.400Z,18.14
2018-09-12T05:06:19.395Z,18.14
2018-09-12T05:07:19.393Z,18.19
2018-09-12T05:08:19.396Z,18.14
2018-09-12T05:09:19.392Z,18.13
2018-09-12T05:10:19.487Z,18.17
2018-09-12T05:11:19.380Z,18.14
2018-09-12T05:12:19.382Z,18.19
2018-09-12T05:13:19.417Z,18.19
2018-09-12T05:14:19.375Z,18.14
2018-09-12T05:15:19.375Z,18.14
2018-09-12T05:16:19.366Z,18.14
2018-09-12T05:17:19.362Z,18.11
2018-09-12T05:18:19.359Z,18.14
2018-09-12T05:19:19.356Z,18.21
2018-09-12T05:20:19.357Z,18.07
2018-09-12T05:21:19.354Z,18.19
2018-09-12T05:22:19.351Z,18.13
2018-09-12T05:23:19.349Z,18.19
2018-09-12T05:24:19.341Z,18.13
2018-09-12T05:25:19.337Z,18.16
2018-09-12T05:26:19.339Z,18.21
2018-09-12T05:27:19.337Z,18.23
2018-09-12T05:28:19.364Z,18.19
2018-09-12T05:29:19.325Z,18.20
2018-09-12T05:30:19.323Z,18.20
2018-09-12T05:31:19.320Z,18.17
2018-09-12T05:32:19.321Z,18.31
2018-09-12T05:33:19.318Z,18.29
2018-09-12T05:34:19.318Z,18.36
2018-09-12T05:35:19.315Z,18.44
2018-09-12T05:36:19.327Z,18.66
2018-09-12T05:37:19.302Z,19.02
2018-09-12T05:38:19.300Z,19.57
2018-09-12T05:39:19.297Z,19.98
2018-09-12T05:40:19.299Z,20.42
2018-09-12T05:41:19.296Z,20.83
2018-09-12T05:42:19.291Z,20.98
2018-09-12T05:43:19.290Z,21.37
2018-09-12T05:44:19.294Z,21.68
2018-09-12T05:45:19.288Z,21.83
2018-09-12T05:46:19.294Z,22.12
2018-09-12T05:47:19.286Z,22.23
2018-09-12T05:48:19.281Z,22.19
2018-09-12T05:49:19.278Z,22.44
2018-09-12T05:50:19.337Z,22.45
2018-09-12T05:51:19.276Z,22.72
2018-09-12T05:52:19.280Z,22.64
2018-09-12T05:53:19.279Z,22.78
2018-09-12T05:54:19.277Z,22.82
2018-09-12T05:55:19.279Z,23.32
2018-09-12T05:56:19.276Z,23.06
2018-09-12T05:57:19.272Z,23.44
2018-09-12T05:58:19.277Z,23.90
2018-09-12T05:59:19.279Z,24.41
2018-09-12T06:00:19.274Z,24.61
2018-09-12T06:01:19.274Z,25.05
2018-09-12T06:02:19.275Z,24.77
2018-09-12T06:03:19.276Z,25.04
2018-09-12T06:04:19.282Z,25.45
2018-09-12T06:05:19.283Z,25.63
2018-09-12T06:06:19.322Z,25.86
2018-09-12T06:07:19.371Z,26.09
2018-09-12T06:08:19.286Z,26.50
2018-09-12T06:09:19.285Z,26.75
2018-09-12T06:10:19.288Z,26.79
2018-09-12T06:11:19.289Z,26.69
2018-09-12T06:12:19.296Z,26.86
2018-09-12T06:13:19.299Z,26.96
2018-09-12T06:14:19.296Z,26.64
2018-09-12T06:15:19.299Z,26.81
2018-09-12T06:16:19.309Z,27.28
2018-09-12T06:17:19.359Z,27.43
2018-09-12T06:18:19.313Z,27.52
2018-09-12T06:19:19.319Z,27.08
2018-09-12T06:20:19.316Z,26.83
2018-09-12T06:21:19.328Z,25.60
2018-09-12T06:22:19.323Z,25.04
2018-09-12T06:23:19.329Z,24.75
2018-09-12T06:24:19.335Z,25.02
2018-09-12T06:25:19.339Z,24.37
2018-09-12T06:26:19.344Z,24.74
2018-09-12T06:27:19.347Z,24.51
2018-09-12T06:28:19.347Z,24.55
2018-09-12T06:29:19.350Z,23.99
2018-09-12T06:30:19.362Z,23.94
2018-09-12T06:31:19.364Z,23.41
2018-09-12T06:32:19.364Z,23.42
2018-09-12T06:33:19.366Z,23.53
2018-09-12T06:34:19.371Z,23.75
2018-09-12T06:35:19.374Z,23.54
2018-09-12T06:36:19.383Z,23.15
2018-09-12T06:37:19.389Z,23.01
2018-09-12T06:38:19.408Z,22.82
2018-09-12T06:39:19.395Z,22.61
2018-09-12T06:40:19.393Z,22.70
2018-09-12T06:41:19.401Z,22.79
2018-09-12T06:42:19.399Z,22.63
2018-09-12T06:43:19.407Z,22.81
2018-09-12T06:44:19.411Z,23.11
2018-09-12T06:45:19.415Z,23.14
2018-09-12T06:46:19.416Z,23.52
2018-09-12T06:47:19.418Z,23.19
2018-09-12T06:48:19.425Z,23.16
2018-09-12T06:49:19.428Z,23.15
2018-09-12T06:50:19.431Z,23.03
2018-09-12T06:51:19.435Z,22.85
2018-09-12T06:52:19.433Z,22.79
2018-09-12T06:53:19.436Z,22.69
2018-09-12T06:54:19.440Z,22.31
2018-09-12T06:55:19.444Z,22.21
2018-09-12T06:56:19.452Z,22.51
2018-09-12T06:57:19.463Z,22.74
2018-09-12T06:58:19.456Z,22.88
2018-09-12T06:59:19.459Z,22.93
2018-09-12T07:00:19.458Z,23.07
2018-09-12T07:01:19.461Z,23.03
2018-09-12T07:02:19.523Z,23.16
2018-09-12T07:03:19.472Z,23.31
2018-09-12T07:04:19.467Z,23.42
2018-09-12T07:05:19.470Z,23.63
2018-09-12T07:06:19.473Z,23.81
2018-09-12T07:07:19.476Z,24.00
2018-09-12T07:08:19.484Z,24.31
2018-09-12T07:09:19.486Z,24.46
2018-09-12T07:10:19.489Z,24.44
2018-09-12T07:11:19.491Z,24.45
2018-09-12T07:12:19.492Z,24.46
2018-09-12T07:13:19.492Z,24.51
2018-09-12T07:14:19.624Z,24.51
2018-09-12T07:15:19.497Z,24.36
2018-09-12T07:16:19.503Z,24.37
2018-09-12T07:17:19.506Z,24.41
2018-09-12T07:18:19.503Z,24.39
2018-09-12T07:19:19.506Z,24.46
2018-09-12T07:20:19.514Z,24.39
2018-09-12T07:21:19.519Z,24.37
2018-09-12T07:22:19.517Z,24.36
2018-09-12T07:23:19.520Z,24.44
2018-09-12T07:24:19.545Z,24.36
2018-09-12T07:25:19.518Z,24.37
2018-09-12T07:26:19.522Z,24.34
2018-09-12T07:27:19.523Z,24.41
2018-09-12T07:28:19.529Z,24.45
2018-09-12T07:29:19.532Z,24.41
2018-09-12T07:30:19.535Z,24.37
2018-09-12T07:31:19.536Z,24.30
2018-09-12T07:32:19.533Z,24.36
2018-09-12T07:33:19.534Z,24.31
2018-09-12T07:34:19.541Z,24.39
2018-09-12T07:35:19.545Z,24.53
2018-09-12T07:36:19.546Z,24.61
2018-09-12T07:37:19.543Z,24.68
2018-09-12T07:38:19.546Z,24.82
2018-09-12T07:39:19.548Z,25.07
2018-09-12T07:40:19.555Z,25.34
2018-09-12T07:41:19.556Z,25.51
2018-09-12T07:42:19.567Z,25.56
2018-09-12T07:43:19.560Z,25.61
2018-09-12T07:44:19.558Z,25.71
2018-09-12T07:45:19.560Z,25.90
2018-09-12T07:46:19.570Z,25.81
2018-09-12T07:47:19.565Z,25.76
2018-09-12T07:48:19.574Z,25.83
2018-09-12T07:49:19.576Z,25.69
2018-09-12T07:50:19.575Z,25.66
2018-09-12T07:51:19.578Z,25.63
2018-09-12T07:52:19.586Z,25.67
2018-09-12T07:53:19.587Z,25.74
2018-09-12T07:54:19.590Z,25.82
2018-09-12T07:55:19.686Z,26.09
2018-09-12T07:56:19.735Z,26.19
2018-09-12T07:57:19.595Z,26.06
2018-09-12T07:58:19.596Z,26.11
2018-09-12T07:59:19.599Z,27.09
2018-09-12T08:00:19.621Z,27.06
2018-09-12T08:01:19.609Z,26.93
2018-09-12T08:02:19.614Z,27.48
2018-09-12T08:03:19.619Z,27.59
2018-09-12T08:04:19.617Z,27.40
2018-09-12T08:05:19.619Z,26.97
2018-09-12T08:06:19.628Z,26.84
2018-09-12T08:07:19.632Z,27.81
2018-09-12T08:08:19.630Z,28.17
2018-09-12T08:09:19.634Z,29.27
2018-09-12T08:10:19.639Z,29.41
2018-09-12T08:11:19.643Z,30.08
2018-09-12T08:12:19.711Z,31.10
2018-09-12T08:13:19.654Z,31.27
2018-09-12T08:14:19.660Z,31.97
2018-09-12T08:15:19.667Z,32.69
2018-09-12T08:16:19.667Z,33.15
2018-09-12T08:17:19.672Z,33.60
2018-09-12T08:18:19.678Z,34.24
2018-09-12T08:19:19.685Z,34.91
2018-09-12T08:20:19.697Z,35.43
2018-09-12T08:21:19.702Z,34.94
2018-09-12T08:22:19.704Z,35.55
2018-09-12T08:23:19.716Z,34.90
2018-09-12T08:24:19.725Z,34.65
2018-09-12T08:25:19.735Z,34.67
2018-09-12T08:26:19.827Z,34.46
2018-09-12T08:27:19.756Z,35.18
2018-09-12T08:28:19.758Z,35.25
2018-09-12T08:29:19.764Z,35.54
2018-09-12T08:30:19.774Z,35.17
2018-09-12T08:31:19.784Z,35.91
2018-09-12T08:32:19.799Z,35.92
2018-09-12T08:33:19.825Z,36.44
2018-09-12T08:34:19.824Z,37.15
2018-09-12T08:35:19.832Z,37.58
2018-09-12T08:36:19.860Z,38.12
2018-09-12T08:37:19.849Z,37.84
2018-09-12T08:38:19.867Z,37.59
2018-09-12T08:39:19.878Z,38.16
2018-09-12T08:40:19.885Z,38.37
2018-09-12T08:41:19.897Z,38.81
2018-09-12T08:42:19.988Z,38.59
2018-09-12T08:43:19.922Z,38.71
2018-09-12T08:44:19.940Z,38.56
2018-09-12T08:45:19.953Z,38.04
2018-09-12T08:46:19.969Z,37.75
2018-09-12T08:47:19.982Z,37.65
2018-09-12T08:48:19.990Z,37.95
2018-09-12T08:49:20.005Z,38.55
2018-09-12T08:50:20.016Z,38.89
2018-09-12T08:51:20.032Z,39.25
2018-09-12T08:52:20.049Z,39.76
2018-09-12T08:53:20.065Z,39.84
2018-09-12T08:54:20.072Z,39.80
2018-09-12T08:55:20.088Z,39.46
2018-09-12T08:56:20.106Z,39.19
2018-09-12T08:57:20.120Z,38.49
2018-09-12T08:58:20.137Z,38.56
2018-09-12T08:59:20.150Z,38.58
2018-09-12T09:00:20.167Z,39.28
2018-09-12T09:01:20.243Z,39.39
2018-09-12T09:02:20.189Z,39.94
2018-09-12T09:03:20.206Z,40.38
2018-09-12T09:04:20.226Z,40.67
2018-09-12T09:05:20.241Z,40.91
2018-09-12T09:06:20.256Z,41.39
2018-09-12T09:07:20.271Z,41.63
2018-09-12T09:08:20.282Z,41.67
2018-09-12T09:09:20.300Z,41.88
2018-09-12T09:10:20.363Z,41.96
2018-09-12T09:11:20.334Z,41.67
2018-09-12T09:12:20.346Z,41.82
2018-09-12T09:13:20.361Z,42.12
2018-09-12T09:14:20.379Z,42.00
2018-09-12T09:15:20.396Z,42.11
2018-09-12T09:16:20.417Z,41.96
2018-09-12T09:17:20.447Z,42.11
2018-09-12T09:18:20.457Z,42.43
2018-09-12T09:19:20.467Z,42.55
2018-09-12T09:20:20.480Z,42.64
2018-09-12T09:21:20.495Z,42.95
2018-09-12T09:22:20.511Z,42.92
2018-09-12T09:23:20.529Z,42.95
2018-09-12T09:24:20.550Z,42.77
2018-09-12T09:25:20.567Z,42.36
2018-09-12T09:26:20.579Z,42.65
2018-09-12T09:27:20.603Z,42.83
2018-09-12T09:28:20.619Z,42.84
2018-09-12T09:29:20.664Z,43.10
2018-09-12T09:30:20.654Z,43.62
2018-09-12T09:31:20.673Z,43.65
2018-09-12T09:32:20.685Z,44.23
2018-09-12T09:33:20.703Z,43.86
2018-09-12T09:34:20.721Z,43.98
2018-09-12T09:35:20.808Z,43.57
2018-09-12T09:36:20.762Z,43.75
2018-09-12T09:37:20.779Z,44.18
2018-09-12T09:38:20.798Z,43.98
2018-09-12T09:39:20.815Z,43.89
2018-09-12T09:40:20.830Z,43.87
2018-09-12T09:41:20.847Z,43.94
2018-09-12T09:42:20.869Z,44.35
2018-09-12T09:43:20.894Z,44.78
2018-09-12T09:44:20.903Z,45.10
2018-09-12T09:45:20.921Z,45.45
2018-09-12T09:46:20.944Z,45.80
2018-09-12T09:47:20.958Z,45.07
2018-09-12T09:48:21.025Z,45.16
2018-09-12T09:49:21.008Z,45.00
2018-09-12T09:50:21.018Z,44.51
2018-09-12T09:51:21.038Z,44.86
2018-09-12T09:52:21.053Z,44.53
2018-09-12T09:53:21.074Z,44.35
2018-09-12T09:54:21.093Z,44.76
2018-09-12T09:55:21.109Z,44.73
2018-09-12T09:56:21.134Z,44.70
2018-09-12T09:57:21.152Z,43.14
2018-09-12T09:58:21.166Z,42.48
2018-09-12T09:59:21.186Z,42.46
2018-09-12T10:00:21.236Z,42.24
2018-09-12T10:01:21.228Z,42.67
2018-09-12T10:02:21.245Z,42.42
2018-09-12T10:03:21.265Z,43.10
2018-09-12T10:04:21.280Z,42.27
2018-09-12T10:05:21.298Z,42.39
2018-09-12T10:06:21.316Z,42.71
2018-09-12T10:07:21.336Z,43.26
2018-09-12T10:08:21.358Z,43.11
2018-09-12T10:09:21.377Z,43.25
2018-09-12T10:10:21.398Z,43.26
2018-09-12T10:11:21.416Z,43.24
2018-09-12T10:12:21.431Z,43.60
2018-09-12T10:13:21.448Z,43.98
2018-09-12T10:14:21.473Z,44.44
2018-09-12T10:15:21.494Z,44.81
2018-09-12T10:16:21.505Z,45.01
2018-09-12T10:17:21.523Z,44.54
2018-09-12T10:18:21.542Z,42.73
2018-09-12T10:19:21.570Z,40.88
2018-09-12T10:20:21.586Z,40.24
2018-09-12T10:21:21.603Z,40.10
2018-09-12T10:22:21.621Z,40.90
2018-09-12T10:23:21.638Z,40.86
2018-09-12T10:24:21.715Z,39.97
2018-09-12T10:25:21.669Z,38.78
2018-09-12T10:26:21.687Z,37.43
2018-09-12T10:27:21.703Z,37.66
2018-09-12T10:28:21.724Z,38.53
2018-09-12T10:29:21.739Z,39.28
2018-09-12T10:30:21.751Z,39.76
2018-09-12T10:31:21.766Z,40.18
2018-09-12T10:32:21.787Z,40.58
2018-09-12T10:33:21.802Z,39.34
2018-09-12T10:34:21.817Z,38.56
2018-09-12T10:35:21.850Z,38.81
2018-09-12T10:36:21.842Z,38.70
2018-09-12T10:37:21.907Z,39.31
2018-09-12T10:38:21.872Z,39.34
2018-09-12T10:39:21.887Z,39.38
2018-09-12T10:40:21.907Z,37.93
2018-09-12T10:41:21.921Z,38.60
2018-09-12T10:42:21.937Z,39.27
2018-09-12T10:43:21.956Z,40.03
2018-09-12T10:44:21.961Z,39.32
2018-09-12T10:45:21.975Z,38.45
2018-09-12T10:46:21.995Z,38.33
2018-09-12T10:47:22.010Z,38.68
2018-09-12T10:48:22.019Z,38.81
2018-09-12T10:49:22.033Z,38.63
2018-09-12T10:50:22.046Z,39.02
2018-09-12T10:51:22.060Z,39.44
2018-09-12T10:52:22.079Z,39.65
2018-09-12T10:53:22.093Z,39.22
2018-09-12T10:54:22.104Z,39.57
2018-09-12T10:55:22.117Z,39.99
2018-09-12T10:56:22.137Z,40.33
2018-09-12T10:57:22.154Z,40.78
2018-09-12T10:58:22.166Z,41.28
2018-09-12T10:59:22.179Z,41.41
2018-09-12T11:00:22.190Z,41.51
2018-09-12T11:01:22.204Z,41.33
2018-09-12T11:02:22.224Z,40.83
2018-09-12T11:03:22.239Z,41.09
2018-09-12T11:04:22.328Z,41.31
2018-09-12T11:05:22.265Z,41.32
2018-09-12T11:10:22.350Z,41.00
2018-09-12T11:11:22.363Z,41.04
2018-09-12T11:12:22.380Z,41.33
2018-09-12T11:13:22.389Z,41.17
2018-09-12T11:14:22.406Z,40.15
2018-09-12T11:15:22.528Z,40.51
2018-09-12T11:16:22.441Z,40.29
2018-09-12T11:17:22.457Z,40.36
2018-09-12T11:18:22.473Z,40.11
2018-09-12T11:19:22.483Z,39.43
2018-09-12T11:20:22.499Z,37.75
2018-09-12T11:21:22.518Z,38.03
2018-09-12T11:22:22.535Z,37.46
2018-09-12T11:23:22.550Z,36.13
2018-09-12T11:24:22.567Z,35.83
2018-09-12T11:25:22.574Z,35.71
2018-09-12T11:26:22.589Z,35.65
2018-09-12T11:27:22.604Z,35.59
2018-09-12T11:28:22.620Z,35.46
2018-09-12T11:29:22.636Z,35.52
2018-09-12T11:30:22.651Z,35.43
2018-09-12T11:31:22.665Z,35.10
2018-09-12T11:32:22.674Z,34.56
2018-09-12T11:33:22.683Z,34.34
2018-09-12T11:34:22.784Z,34.33
2018-09-12T11:35:22.712Z,33.96
2018-09-12T11:36:22.724Z,33.63
2018-09-12T11:37:22.730Z,33.12
2018-09-12T11:38:22.742Z,32.62
2018-09-12T11:39:22.755Z,32.59
2018-09-12T11:40:22.766Z,32.35
2018-09-12T11:41:22.781Z,32.17
2018-09-12T11:42:22.796Z,31.88
2018-09-12T11:43:22.802Z,32.06
2018-09-12T11:44:22.812Z,31.94
2018-09-12T11:45:22.815Z,31.90
2018-09-12T11:46:22.826Z,31.90
2018-09-12T11:47:22.835Z,32.02
2018-09-12T11:48:22.845Z,32.06
2018-09-12T11:49:22.856Z,31.87
2018-09-12T11:50:22.866Z,31.90
2018-09-12T11:51:22.870Z,31.88
2018-09-12T11:52:22.879Z,31.76
2018-09-12T11:53:22.891Z,31.97
2018-09-12T11:54:22.900Z,31.88
2018-09-12T11:55:22.943Z,31.98
2018-09-12T11:56:22.920Z,31.84
2018-09-12T11:57:22.919Z,31.79
2018-09-12T11:58:22.926Z,31.82
2018-09-12T11:59:22.937Z,31.64
2018-09-12T12:00:22.942Z,31.53
2018-09-12T12:01:22.954Z,31.40
2018-09-12T12:02:22.961Z,31.37
2018-09-12T12:03:22.968Z,31.20
2018-09-12T12:04:22.979Z,31.05
2018-09-12T12:05:22.980Z,30.86
2018-09-12T12:06:22.986Z,30.93
2018-09-12T12:07:23.000Z,30.96
2018-09-12T12:08:23.008Z,30.86
2018-09-12T12:09:23.007Z,30.81
2018-09-12T12:10:23.015Z,30.44
2018-09-12T12:11:23.022Z,30.57
2018-09-12T12:12:23.028Z,30.40
2018-09-12T12:13:23.040Z,30.48
2018-09-12T12:14:23.045Z,30.32
2018-09-12T12:15:23.085Z,30.42
2018-09-12T12:16:23.059Z,30.59
2018-09-12T12:17:23.063Z,30.68
2018-09-12T12:18:23.068Z,30.75
2018-09-12T12:19:23.074Z,30.75
2018-09-12T12:20:23.081Z,30.66
2018-09-12T12:21:23.091Z,30.75
2018-09-12T12:22:23.098Z,30.90
2018-09-12T12:23:23.101Z,30.82
2018-09-12T12:24:23.106Z,30.76
2018-09-12T12:25:23.122Z,30.79
2018-09-12T12:26:23.124Z,30.94
2018-09-12T12:27:23.130Z,30.85
2018-09-12T12:28:23.136Z,30.59
2018-09-12T12:29:23.137Z,30.46
2018-09-12T12:30:23.143Z,30.60
2018-09-12T12:31:23.156Z,30.54
2018-09-12T12:32:23.158Z,30.61
2018-09-12T12:33:23.166Z,30.67
2018-09-12T12:34:23.173Z,30.75
2018-09-12T12:35:23.267Z,30.59
2018-09-12T12:36:23.187Z,30.66
2018-09-12T12:37:23.188Z,30.54
2018-09-12T12:38:23.194Z,30.48
2018-09-12T12:39:23.206Z,30.42
2018-09-12T12:40:23.212Z,30.36
2018-09-12T12:41:23.276Z,30.44
2018-09-12T12:42:23.219Z,30.22
2018-09-12T12:43:23.224Z,30.21
2018-09-12T12:44:23.230Z,30.15
2018-09-12T12:45:23.240Z,30.16
2018-09-12T12:46:23.247Z,30.28
2018-09-12T12:47:23.253Z,30.16
2018-09-12T12:48:23.259Z,30.13
2018-09-12T12:49:23.261Z,30.13
2018-09-12T12:50:23.267Z,29.71
2018-09-12T12:51:23.272Z,29.63
2018-09-12T12:52:23.280Z,29.69
2018-09-12T12:53:23.289Z,29.76
2018-09-12T12:54:23.295Z,29.57
2018-09-12T12:55:23.302Z,29.51
2018-09-12T12:56:23.303Z,29.51